Time;durP1;ratioP1;P1;durP2;ratioP2;P2;SDS_P1;SDS_P2;PMS_P1;PMS_P2;Temp;Humidity;BMP_temperature;BMP_pressure;BME280_temperature;BME280_humidity;BME280_pressure;Samples;Min_cycle;Max_cycle;Signal;HPM_P1;HPM_P2
2021/03/29 00:00:49;;;;;;;8.25;3.03;;;10.90;99.90;;;;;;4854699;29;20174;-79
2021/03/29 00:03:16;;;;;;;7.53;2.70;;;10.90;99.90;;;;;;4849657;29;20029;-78
2021/03/29 00:05:42;;;;;;;5.68;2.25;;;11.00;99.90;;;;;;4851977;29;20030;-84
2021/03/29 00:08:20;;;;;;;5.88;2.20;;;11.00;99.90;;;;;;4859538;29;20504;-81
2021/03/29 00:10:48;;;;;;;8.23;2.47;;;11.10;99.80;;;;;;4859434;29;20097;-84
2021/03/29 00:13:15;;;;;;;4.30;2.05;;;11.00;99.80;;;;;;4858224;29;20480;-84
2021/03/29 00:15:45;;;;;;;7.05;2.40;;;11.00;99.70;;;;;;4855490;29;20029;-80
2021/03/29 00:18:12;;;;;;;3.97;2.10;;;11.00;99.50;;;;;;4851217;29;20093;-81
2021/03/29 00:20:42;;;;;;;7.20;2.60;;;11.00;99.70;;;;;;4855603;29;20041;-83
2021/03/29 00:23:08;;;;;;;6.53;2.05;;;11.00;99.70;;;;;;4835555;29;20034;-81
2021/03/29 00:25:34;;;;;;;3.83;2.30;;;11.00;99.70;;;;;;4833091;29;20026;-85
2021/03/29 00:28:00;;;;;;;6.63;2.25;;;11.30;99.90;;;;;;4849524;29;20034;-82
2021/03/29 00:30:35;;;;;;;4.82;2.60;;;10.90;99.80;;;;;;4849592;29;20112;-84
2021/03/29 00:33:04;;;;;;;8.13;3.38;;;11.00;99.60;;;;;;4844476;29;20172;-84
2021/03/29 00:35:32;;;;;;;6.13;3.15;;;10.90;99.40;;;;;;4835725;29;20030;-81
2021/03/29 00:38:00;;;;;;;6.00;2.45;;;10.90;99.50;;;;;;4851612;29;20087;-80
2021/03/29 00:40:26;;;;;;;9.27;3.13;;;11.00;99.30;;;;;;4857591;29;20037;-84
2021/03/29 00:43:07;;;;;;;5.15;2.47;;;11.00;99.40;;;;;;4862407;29;20519;-82
2021/03/29 00:45:33;;;;;;;6.05;2.22;;;11.00;99.10;;;;;;4855382;29;20050;-78
2021/03/29 00:48:00;;;;;;;4.13;2.28;;;11.00;99.30;;;;;;4856400;29;20037;-79
2021/03/29 00:51:13;;;;;;;5.63;3.25;;;11.00;99.20;;;;;;4855467;29;20025;-81
2021/03/29 00:53:42;;;;;;;6.97;3.33;;;11.00;99.20;;;;;;4837496;29;20429;-83
2021/03/29 00:56:09;;;;;;;7.13;3.28;;;11.00;99.20;;;;;;4853612;29;20033;-80
2021/03/29 00:58:35;;;;;;;6.38;2.78;;;11.00;99.10;;;;;;4860863;29;20041;-83
2021/03/29 01:01:12;;;;;;;7.72;3.15;;;11.00;99.10;;;;;;4861624;29;20093;-80
2021/03/29 01:03:41;;;;;;;9.13;2.50;;;11.00;99.30;;;;;;4859960;29;20044;-81
2021/03/29 01:06:14;;;;;;;4.50;2.83;;;11.00;99.20;;;;;;4848472;29;20034;-82
2021/03/29 01:08:43;;;;;;;4.82;2.67;;;11.00;99.30;;;;;;4851402;29;20034;-84
2021/03/29 01:11:13;;;;;;;6.47;2.63;;;11.00;99.40;;;;;;4855982;29;20168;-84
2021/03/29 01:13:45;;;;;;;5.17;3.03;;;11.00;99.40;;;;;;4848014;29;20038;-79
2021/03/29 01:16:12;;;;;;;;;;;11.00;99.60;;;;;;4852068;29;20061;-80
2021/03/29 01:18:43;;;;;;;7.45;2.55;;;10.90;99.60;;;;;;4848369;29;20302;-81
2021/03/29 01:21:38;;;;;;;7.53;2.83;;;9.80;99.30;;;;;;4832760;29;20034;-81
2021/03/29 01:24:15;;;;;;;5.97;3.13;;;10.90;99.80;;;;;;4853792;29;20038;-79
2021/03/29 01:26:46;;;;;;;7.25;2.70;;;11.00;99.90;;;;;;4852544;29;20034;-80
2021/03/29 01:29:15;;;;;;;4.57;2.57;;;10.90;99.90;;;;;;4852488;29;20064;-79
2021/03/29 01:31:42;;;;;;;4.07;2.80;;;10.80;99.90;;;;;;4867055;29;20330;-81
2021/03/29 01:34:10;;;;;;;7.95;3.15;;;10.90;99.90;;;;;;4848761;29;20053;-82
2021/03/29 01:36:42;;;;;;;6.00;3.40;;;10.80;99.90;;;;;;4848584;29;20039;-84
2021/03/29 01:39:13;;;;;;;7.22;2.45;;;10.80;99.90;;;;;;4850556;29;20037;-86
2021/03/29 01:41:42;;;;;;;6.78;2.80;;;10.80;99.90;;;;;;4854495;29;20041;-83
2021/03/29 01:44:08;;;;;;;7.03;2.30;;;10.70;99.90;;;;;;4855595;29;20052;-85
2021/03/29 01:46:35;;;;;;;5.00;2.95;;;10.70;99.90;;;;;;4864969;29;20112;-83
2021/03/29 01:49:04;;;;;;;4.78;2.30;;;10.80;99.90;;;;;;4862012;29;20084;-83
2021/03/29 01:51:30;;;;;;;5.75;2.55;;;10.70;99.90;;;;;;4859067;29;20034;-83
2021/03/29 01:53:56;;;;;;;5.30;2.72;;;;;;;;;;4859953;29;20069;-79
2021/03/29 01:56:25;;;;;;;9.88;2.75;;;10.80;99.90;;;;;;4861936;29;20106;-79
2021/03/29 01:58:51;;;;;;;4.22;2.38;;;10.80;99.90;;;;;;4851212;29;20116;-79
2021/03/29 02:01:17;;;;;;;5.05;2.50;;;10.80;99.90;;;;;;4855553;29;20060;-79
2021/03/29 02:03:43;;;;;;;5.60;2.53;;;10.70;99.90;;;;;;4852501;29;20069;-77
2021/03/29 02:06:10;;;;;;;10.65;3.15;;;10.80;99.90;;;;;;4858113;29;20537;-80
2021/03/29 02:08:41;;;;;;;9.50;2.88;;;10.80;99.90;;;;;;4844039;29;20026;-81
2021/03/29 02:11:07;;;;;;;6.45;2.88;;;10.80;99.90;;;;;;4849313;29;20067;-79
2021/03/29 02:13:40;;;;;;;6.47;3.13;;;10.90;99.90;;;;;;4849688;29;20447;-78
2021/03/29 02:16:08;;;;;;;5.28;2.65;;;10.90;99.90;;;;;;4850601;29;20034;-79
2021/03/29 02:18:40;;;;;;;8.77;3.50;;;10.90;99.90;;;;;;4853656;29;20069;-84
2021/03/29 02:21:13;;;;;;;4.93;2.25;;;10.80;99.90;;;;;;4851402;29;20037;-79
2021/03/29 02:23:50;;;;;;;4.43;2.53;;;10.80;99.90;;;;;;4851317;29;20037;-79
2021/03/29 02:26:19;;;;;;;7.03;2.92;;;10.70;99.90;;;;;;4855682;29;20030;-79
2021/03/29 02:28:46;;;;;;;5.38;2.33;;;10.70;99.90;;;;;;4858006;29;20026;-81
2021/03/29 02:31:13;;;;;;;6.72;2.72;;;10.60;99.90;;;;;;4853454;29;20051;-79
2021/03/29 02:33:39;;;;;;;6.53;3.00;;;10.60;99.90;;;;;;4855410;29;20496;-85
2021/03/29 02:36:06;;;;;;;7.22;3.45;;;10.50;99.90;;;;;;4859839;29;20030;-84
2021/03/29 02:38:32;;;;;;;5.45;2.53;;;10.40;99.90;;;;;;4855231;29;20052;-83
2021/03/29 02:40:58;;;;;;;7.82;2.67;;;10.30;99.90;;;;;;4864150;29;20102;-80
2021/03/29 02:43:25;;;;;;;5.43;3.13;;;10.20;99.90;;;;;;4859498;29;20116;-82
2021/03/29 02:45:55;;;;;;;6.82;2.80;;;10.20;99.90;;;;;;4861781;29;20035;-82
2021/03/29 02:48:26;;;;;;;5.47;2.65;;;10.30;99.90;;;;;;4857193;29;20120;-79
2021/03/29 02:50:55;;;;;;;7.28;3.60;;;10.30;99.90;;;;;;4855193;29;20137;-78
2021/03/29 02:53:25;;;;;;;5.80;2.58;;;10.30;99.90;;;;;;4864387;29;20048;-85
2021/03/29 02:55:52;;;;;;;7.50;3.00;;;10.30;99.90;;;;;;4864258;29;20029;-82
2021/03/29 02:58:24;;;;;;;6.78;2.75;;;10.30;99.90;;;;;;4857067;29;20045;-83
2021/03/29 03:00:54;;;;;;;6.57;3.10;;;10.30;99.90;;;;;;4859336;29;20441;-81
2021/03/29 03:03:20;;;;;;;6.15;2.42;;;10.30;99.90;;;;;;4853822;29;20029;-80
2021/03/29 03:05:46;;;;;;;4.68;2.58;;;10.30;99.90;;;;;;4863560;29;20518;-78
2021/03/29 03:08:12;;;;;;;7.22;2.72;;;10.30;99.90;;;;;;4855238;29;20034;-78
2021/03/29 03:10:39;;;;;;;5.38;2.80;;;10.30;99.90;;;;;;4855337;29;20101;-81
2021/03/29 03:13:07;;;;;;;5.30;3.03;;;10.30;99.90;;;;;;4855381;29;20049;-82
2021/03/29 03:15:33;;;;;;;8.05;2.72;;;10.30;99.90;;;;;;4857573;29;20033;-78
2021/03/29 03:18:02;;;;;;;6.70;3.30;;;10.40;99.90;;;;;;4863910;29;20106;-79
2021/03/29 03:20:30;;;;;;;8.70;2.45;;;10.40;99.90;;;;;;4863742;29;20058;-81
2021/03/29 03:23:02;;;;;;;6.28;3.17;;;9.80;99.90;;;;;;4857899;29;20222;-77
2021/03/29 03:25:33;;;;;;;;;;;10.40;99.90;;;;;;4862684;29;20022;-78
2021/03/29 03:28:02;;;;;;;5.75;2.30;;;10.40;99.90;;;;;;4869474;29;19955;-82
2021/03/29 03:30:31;;;;;;;5.18;2.47;;;10.40;99.90;;;;;;4865674;29;20034;-79
2021/03/29 03:32:58;;;;;;;7.13;2.47;;;10.40;99.90;;;;;;4844080;29;20041;-79
2021/03/29 03:35:26;;;;;;;7.35;2.50;;;10.40;99.90;;;;;;4861830;29;20038;-78
2021/03/29 03:37:58;;;;;;;7.80;3.28;;;10.40;99.90;;;;;;4866676;29;20041;-80
2021/03/29 03:40:24;;;;;;;8.05;3.67;;;10.40;99.90;;;;;;4864119;29;20044;-85
2021/03/29 03:42:52;;;;;;;6.18;2.55;;;10.40;99.90;;;;;;4863273;29;20082;-83
2021/03/29 03:45:22;;;;;;;6.55;2.88;;;10.40;99.90;;;;;;4865091;29;20040;-83
2021/03/29 03:47:48;;;;;;;8.20;2.80;;;10.40;99.90;;;;;;4870567;29;20029;-84
2021/03/29 03:50:15;;;;;;;8.55;3.08;;;10.40;99.90;;;;;;4862982;29;20145;-81
2021/03/29 03:52:41;;;;;;;4.65;2.53;;;10.40;99.90;;;;;;4867117;29;20022;-81
2021/03/29 03:55:09;;;;;;;6.00;2.92;;;10.40;99.90;;;;;;4859373;29;20026;-78
2021/03/29 03:57:38;;;;;;;10.32;3.67;;;10.40;99.90;;;;;;4872455;29;20029;-79
2021/03/29 04:00:10;;;;;;;4.13;2.40;;;10.40;99.90;;;;;;4854379;29;20061;-79
2021/03/29 04:02:36;;;;;;;9.77;3.08;;;10.40;99.90;;;;;;4872835;29;20128;-80
2021/03/29 04:05:10;;;;;;;5.35;2.67;;;10.40;99.90;;;;;;4864214;29;20045;-79
2021/03/29 04:07:36;;;;;;;5.07;2.50;;;10.40;99.90;;;;;;4866695;29;20034;-81
2021/03/29 04:10:12;;;;;;;10.20;3.83;;;10.40;99.90;;;;;;4859942;29;20061;-81
2021/03/29 04:12:37;;;;;;;8.45;2.90;;;10.40;99.90;;;;;;4853964;29;20026;-78
2021/03/29 04:15:04;;;;;;;7.53;2.70;;;10.40;99.90;;;;;;4857139;29;20511;-79
2021/03/29 04:17:32;;;;;;;8.38;3.50;;;10.40;99.90;;;;;;4862459;29;20042;-78
2021/03/29 04:19:57;;;;;;;7.20;3.17;;;10.30;99.90;;;;;;4863008;29;20037;-82
2021/03/29 04:22:23;;;;;;;7.18;3.03;;;10.30;99.90;;;;;;4854696;29;20034;-78
2021/03/29 04:24:49;;;;;;;6.05;2.80;;;10.30;99.90;;;;;;4855558;29;20455;-78
2021/03/29 04:27:15;;;;;;;8.68;2.83;;;10.30;99.90;;;;;;4862098;29;20037;-80
2021/03/29 04:29:40;;;;;;;4.82;2.78;;;10.30;99.90;;;;;;4853788;29;20033;-78
2021/03/29 04:32:09;;;;;;;7.38;3.45;;;10.30;99.90;;;;;;4853901;29;20059;-77
2021/03/29 04:34:38;;;;;;;7.03;3.20;;;10.20;99.90;;;;;;4856635;29;20060;-79
2021/03/29 04:37:04;;;;;;;6.53;3.10;;;10.20;99.90;;;;;;4860996;29;20116;-77
2021/03/29 04:39:29;;;;;;;9.95;3.55;;;10.20;99.90;;;;;;4860428;29;20081;-80
2021/03/29 04:41:55;;;;;;;6.30;2.92;;;10.30;99.90;;;;;;4853478;29;20078;-78
2021/03/29 04:44:21;;;;;;;7.68;3.10;;;10.30;99.90;;;;;;4868255;29;20037;-78
2021/03/29 04:46:46;;;;;;;9.05;2.70;;;10.30;99.90;;;;;;4871152;29;20097;-80
2021/03/29 04:49:12;;;;;;;8.00;3.20;;;10.30;99.90;;;;;;4857262;29;20060;-79
2021/03/29 04:51:37;;;;;;;6.68;2.92;;;10.30;99.90;;;;;;4853023;29;20042;-79
2021/03/29 04:54:03;;;;;;;6.70;3.00;;;10.30;99.90;;;;;;4864950;29;20044;-76
2021/03/29 04:56:29;;;;;;;6.57;3.00;;;10.30;99.90;;;;;;4854901;29;20040;-78
2021/03/29 04:58:55;;;;;;;8.25;3.25;;;10.30;99.90;;;;;;4858009;29;20038;-78
2021/03/29 05:01:20;;;;;;;7.57;2.90;;;10.30;99.90;;;;;;4860867;29;20037;-76
2021/03/29 05:03:46;;;;;;;10.93;3.45;;;10.20;99.90;;;;;;4855641;29;20075;-79
2021/03/29 05:06:21;;;;;;;9.15;3.05;;;10.20;99.90;;;;;;4846635;29;20030;-81
2021/03/29 05:08:46;;;;;;;7.32;3.05;;;10.30;99.90;;;;;;4855717;29;20046;-77
2021/03/29 05:11:12;;;;;;;10.75;3.92;;;10.30;99.90;;;;;;4861091;29;20026;-79
2021/03/29 05:13:37;;;;;;;7.10;3.00;;;10.30;99.90;;;;;;4855134;29;20030;-79
2021/03/29 05:16:04;;;;;;;9.73;3.70;;;10.30;99.90;;;;;;4856111;29;20041;-82
2021/03/29 05:18:29;;;;;;;7.35;2.92;;;10.30;99.90;;;;;;4857425;29;20071;-81
2021/03/29 05:20:55;;;;;;;11.73;3.42;;;10.30;99.90;;;;;;4852894;29;20109;-82
2021/03/29 05:23:21;;;;;;;8.07;3.60;;;10.30;99.90;;;;;;4855929;29;20037;-82
2021/03/29 05:25:47;;;;;;;11.38;3.42;;;10.30;99.90;;;;;;4861784;29;20077;-81
2021/03/29 05:28:13;;;;;;;10.65;3.20;;;10.30;99.90;;;;;;4867011;29;20488;-79
2021/03/29 05:30:38;;;;;;;8.48;3.60;;;10.30;99.90;;;;;;4860976;29;20044;-79
2021/03/29 05:33:04;;;;;;;8.50;3.30;;;10.40;99.90;;;;;;4858847;29;20048;-80
2021/03/29 05:35:30;;;;;;;7.68;2.92;;;10.50;99.90;;;;;;4862362;29;20030;-81
2021/03/29 05:37:56;;;;;;;7.80;3.80;;;10.50;99.90;;;;;;4868547;29;20408;-78
2021/03/29 05:40:21;;;;;;;10.05;3.92;;;10.50;99.90;;;;;;4850240;29;20416;-84
2021/03/29 05:42:47;;;;;;;11.38;3.97;;;10.60;99.90;;;;;;4863950;29;20033;-81
2021/03/29 05:45:14;;;;;;;6.70;3.03;;;10.60;99.90;;;;;;4851958;29;20033;-81
2021/03/29 05:47:40;;;;;;;10.43;3.38;;;10.60;99.90;;;;;;4846510;29;20054;-81
2021/03/29 05:50:15;;;;;;;12.07;6.10;;;10.60;99.90;;;;;;4850821;29;20030;-79
2021/03/29 05:52:41;;;;;;;11.63;4.28;;;10.70;99.90;;;;;;4849345;29;20087;-81
2021/03/29 05:55:12;;;;;;;8.52;3.83;;;10.70;99.90;;;;;;4862601;29;20039;-79
2021/03/29 05:58:04;;;;;;;8.65;3.40;;;10.70;99.90;;;;;;4854730;29;20121;-81
2021/03/29 06:00:34;;;;;;;12.90;4.78;;;10.80;99.90;;;;;;4858753;29;20115;-79
2021/03/29 06:03:23;;;;;;;8.10;3.35;;;10.80;99.90;;;;;;4864728;29;20091;-78
2021/03/29 06:05:51;;;;;;;5.25;2.83;;;10.80;99.90;;;;;;4861424;29;20475;-77
2021/03/29 06:08:18;;;;;;;11.32;3.88;;;10.80;99.90;;;;;;4852644;29;20041;-79
2021/03/29 06:10:44;;;;;;;8.70;4.38;;;10.90;99.90;;;;;;4860986;29;20028;-77
2021/03/29 06:13:19;;;;;;;9.32;4.38;;;10.90;99.90;;;;;;4857520;29;20041;-77
2021/03/29 06:15:46;;;;;;;8.57;3.60;;;10.90;99.90;;;;;;4860391;29;20029;-80
2021/03/29 06:18:16;;;;;;;8.20;4.05;;;11.00;99.90;;;;;;4847456;29;20048;-79
2021/03/29 06:21:20;;;;;;;9.50;4.05;;;11.00;99.90;;;;;;4858981;29;20021;-77
2021/03/29 06:23:58;;;;;;;8.80;4.38;;;11.00;99.90;;;;;;4800660;29;20062;-77
2021/03/29 06:26:29;;;;;;;9.35;3.72;;;11.00;99.90;;;;;;4803206;29;20541;-77
2021/03/29 06:28:55;;;;;;;7.57;3.23;;;11.00;99.90;;;;;;4827453;29;20053;-77
2021/03/29 06:31:20;;;;;;;12.90;3.95;;;11.00;99.90;;;;;;4856833;29;20286;-78
2021/03/29 06:33:47;;;;;;;10.05;4.07;;;11.10;99.90;;;;;;4836051;29;20466;-79
2021/03/29 06:36:31;;;;;;;6.45;3.10;;;11.20;99.90;;;;;;4852983;29;20502;-80
2021/03/29 06:39:09;;;;;;;9.23;3.25;;;11.30;99.90;;;;;;4849256;29;20573;-78
2021/03/29 06:41:34;;;;;;;7.60;4.07;;;11.40;99.90;;;;;;4853908;29;20038;-80
2021/03/29 06:44:01;;;;;;;8.43;3.72;;;11.50;99.90;;;;;;4847694;29;20192;-79
2021/03/29 06:46:30;;;;;;;8.85;4.00;;;11.60;99.90;;;;;;4847315;29;20041;-82
2021/03/29 06:48:58;;;;;;;7.07;3.50;;;11.70;99.90;;;;;;4850796;29;20034;-78
2021/03/29 06:51:25;;;;;;;8.05;3.45;;;11.70;99.50;;;;;;4850568;29;20162;-81
2021/03/29 06:54:06;;;;;;;13.20;3.45;;;11.90;99.20;;;;;;4857007;29;20484;-78
2021/03/29 06:56:36;;;;;;;12.32;6.03;;;11.90;98.20;;;;;;4860460;29;20066;-78
2021/03/29 06:59:04;;;;;;;7.47;3.53;;;12.00;97.90;;;;;;4851341;29;20105;-80
2021/03/29 07:01:32;;;;;;;10.43;4.78;;;12.10;97.20;;;;;;4857190;29;20029;-79
2021/03/29 07:03:58;;;;;;;7.28;4.20;;;12.10;97.40;;;;;;4855569;29;20565;-78
2021/03/29 07:06:27;;;;;;;9.63;4.95;;;12.30;96.50;;;;;;4846143;29;20034;-78
2021/03/29 07:09:04;;;;;;;7.95;3.33;;;12.40;95.50;;;;;;4835868;29;20096;-82
2021/03/29 07:11:30;;;;;;;8.77;3.72;;;12.50;95.70;;;;;;4853316;29;20033;-84
2021/03/29 07:14:00;;;;;;;7.30;3.28;;;12.60;94.50;;;;;;4859924;29;20072;-81
2021/03/29 07:16:27;;;;;;;5.85;3.22;;;12.70;94.00;;;;;;4853154;29;20125;-78
2021/03/29 07:19:01;;;;;;;10.45;3.35;;;12.60;93.90;;;;;;4844466;29;20120;-81
2021/03/29 07:21:28;;;;;;;6.75;3.45;;;12.60;95.10;;;;;;4844781;29;20045;-81
2021/03/29 07:24:00;;;;;;;9.95;4.00;;;12.70;94.00;;;;;;4849382;29;20118;-84
2021/03/29 07:26:58;;;;;;;7.65;3.50;;;12.70;93.30;;;;;;4849793;29;20113;-81
2021/03/29 07:29:28;;;;;;;10.35;3.25;;;12.70;93.70;;;;;;4846713;29;20029;-82
2021/03/29 07:32:05;;;;;;;5.50;3.78;;;12.90;93.10;;;;;;4859263;29;20033;-82
2021/03/29 07:34:47;;;;;;;9.90;3.85;;;13.20;91.40;;;;;;4855864;29;20052;-83
2021/03/29 07:37:31;;;;;;;9.63;3.85;;;13.20;91.60;;;;;;4851182;29;20017;-83
2021/03/29 07:39:59;;;;;;;7.97;3.50;;;13.10;90.50;;;;;;4844942;29;20095;-83
2021/03/29 07:42:25;;;;;;;7.85;3.10;;;13.20;90.30;;;;;;4833848;29;20102;-81
2021/03/29 07:45:09;;;;;;;8.77;3.22;;;13.40;90.00;;;;;;4831952;29;20121;-82
2021/03/29 07:47:40;;;;;;;9.57;3.92;;;13.40;90.00;;;;;;4835320;29;20057;-81
2021/03/29 07:50:10;;;;;;;;;;;13.50;86.30;;;;;;4827006;29;20038;-84
2021/03/29 07:52:46;;;;;;;8.80;3.30;;;13.50;86.00;;;;;;4842697;29;19923;-79
2021/03/29 07:55:29;;;;;;;9.75;3.40;;;13.40;85.50;;;;;;4833694;29;20033;-79
2021/03/29 07:58:00;;;;;;;8.13;4.15;;;13.50;85.20;;;;;;4822265;29;20077;-82
2021/03/29 08:00:25;;;;;;;10.07;3.45;;;13.60;83.40;;;;;;4827651;29;20042;-84
2021/03/29 08:02:57;;;;;;;6.25;3.25;;;13.80;82.70;;;;;;4845779;29;20082;-85
2021/03/29 08:05:40;;;;;;;10.65;3.40;;;13.80;82.40;;;;;;4849775;29;20102;-86
2021/03/29 08:08:27;;;;;;;5.20;3.33;;;13.90;81.60;;;;;;4831225;29;20038;-83
2021/03/29 08:10:59;;;;;;;8.95;3.17;;;14.10;80.00;;;;;;4828164;29;20030;-84
2021/03/29 08:13:53;;;;;;;16.48;5.13;;;14.10;78.60;;;;;;4843931;29;20030;-85
2021/03/29 08:16:25;;;;;;;10.00;3.20;;;14.10;80.80;;;;;;4830153;29;20038;-79
2021/03/29 08:19:25;;;;;;;6.57;4.25;;;14.30;78.70;;;;;;4834553;29;20040;-77
2021/03/29 08:22:05;;;;;;;12.63;3.20;;;14.40;76.20;;;;;;4812474;29;20048;-85
2021/03/29 08:24:46;;;;;;;7.88;2.95;;;14.70;74.00;;;;;;4834654;29;20065;-81
2021/03/29 08:27:14;;;;;;;6.75;3.35;;;14.70;74.00;;;;;;4835711;29;20037;-78
2021/03/29 08:29:41;;;;;;;9.45;4.60;;;14.80;73.70;;;;;;4840159;29;20061;-79
2021/03/29 08:32:16;;;;;;;8.23;3.55;;;14.80;71.90;;;;;;4849927;29;20026;-80
2021/03/29 08:34:55;;;;;;;6.32;3.17;;;14.80;72.30;;;;;;4840079;29;20085;-85
2021/03/29 08:37:28;;;;;;;7.93;3.67;;;14.90;71.50;;;;;;4834422;29;20054;-80
2021/03/29 08:40:00;;;;;;;7.90;3.10;;;15.10;70.40;;;;;;4853438;29;20093;-81
2021/03/29 08:42:28;;;;;;;;;;;15.20;68.80;;;;;;4867665;29;20034;-83
2021/03/29 08:44:58;;;;;;;5.32;3.00;;;15.10;68.20;;;;;;4863037;29;20283;-81
2021/03/29 08:47:33;;;;;;;9.93;3.47;;;15.50;67.00;;;;;;4859999;29;20032;-82
2021/03/29 08:50:05;;;;;;;5.68;3.05;;;15.50;66.40;;;;;;4856173;29;20026;-83
2021/03/29 08:52:42;;;;;;;6.10;2.80;;;15.60;66.00;;;;;;4865849;29;20442;-82
2021/03/29 08:55:16;;;;;;;6.22;3.40;;;15.60;66.10;;;;;;4870184;29;20068;-81
2021/03/29 08:57:42;;;;;;;7.85;2.95;;;15.50;66.50;;;;;;4871328;29;20034;-81
2021/03/29 09:00:38;;;;;;;7.38;3.15;;;15.90;64.30;;;;;;4859365;29;20109;-79
2021/03/29 09:03:04;;;;;;;7.40;2.80;;;15.80;64.30;;;;;;4859430;29;20037;-78
2021/03/29 09:05:30;;;;;;;7.90;3.13;;;15.80;64.90;;;;;;4859776;29;20036;-80
2021/03/29 09:08:08;;;;;;;5.18;2.75;;;15.60;66.10;;;;;;4860281;29;20468;-81
2021/03/29 09:10:36;;;;;;;8.73;4.53;;;15.40;66.20;;;;;;4860636;29;20079;-79
2021/03/29 09:13:04;;;;;;;6.55;3.10;;;15.40;67.50;;;;;;4866893;29;20097;-81
2021/03/29 09:15:38;;;;;;;7.90;2.88;;;15.80;64.80;;;;;;4860231;29;20241;-81
2021/03/29 09:18:09;;;;;;;7.50;2.90;;;16.00;65.30;;;;;;4866181;29;20077;-83
2021/03/29 09:20:46;;;;;;;8.35;3.00;;;16.40;63.40;;;;;;4871640;29;20030;-81
2021/03/29 09:23:15;;;;;;;11.65;3.10;;;16.60;62.00;;;;;;4857601;29;20407;-82
2021/03/29 09:25:44;;;;;;;9.95;3.95;;;16.40;62.30;;;;;;4843916;29;20116;-84
2021/03/29 09:28:57;;;;;;;11.00;3.13;;;16.40;62.90;;;;;;4863334;29;20025;-84
2021/03/29 09:31:15;;;;;;;20.38;8.23;;;16.70;61.60;;;;;;4851263;29;20076;-84
2021/03/29 09:33:44;;;;;;;7.93;3.00;;;17.00;60.00;;;;;;4872364;29;20017;-84
2021/03/29 09:36:12;;;;;;;10.10;4.47;;;16.90;60.00;;;;;;4874952;29;20037;-89
2021/03/29 09:38:38;;;;;;;6.90;3.00;;;;;;;;;;4854113;29;20042;-85
2021/03/29 09:41:18;;;;;;;8.07;3.42;;;17.30;58.50;;;;;;4843648;29;20060;-86
2021/03/29 09:43:48;;;;;;;8.00;2.80;;;17.60;58.00;;;;;;4839685;29;20109;-88
2021/03/29 09:46:15;;;;;;;6.65;3.08;;;18.60;56.50;;;;;;4829737;29;20073;-82
2021/03/29 09:48:42;;;;;;;17.85;7.65;;;19.50;53.80;;;;;;4837977;29;20110;-82
2021/03/29 09:51:22;;;;;;;8.45;3.60;;;19.50;53.50;;;;;;4839090;29;20037;-82
2021/03/29 09:53:48;;;;;;;8.52;3.85;;;20.00;51.70;;;;;;4843149;29;20086;-80
2021/03/29 09:56:25;;;;;;;7.47;3.15;;;22.00;48.60;;;;;;4816011;29;20109;-84
2021/03/29 09:58:50;;;;;;;11.32;2.70;;;;;;;;;;4842144;29;20054;-84
2021/03/29 10:01:21;;;;;;;7.18;3.20;;;22.50;45.60;;;;;;4840796;29;20026;-82
2021/03/29 10:03:52;;;;;;;4.70;2.53;;;22.50;46.10;;;;;;4837930;29;20038;-83
2021/03/29 10:06:18;;;;;;;9.75;2.95;;;22.70;44.80;;;;;;4837599;29;20078;-84
2021/03/29 10:08:57;;;;;;;8.07;3.10;;;23.20;44.50;;;;;;4837052;29;20037;-84
2021/03/29 10:11:24;;;;;;;6.63;3.33;;;22.70;44.40;;;;;;4837651;29;20527;-82
2021/03/29 10:13:50;;;;;;;7.03;3.80;;;22.70;44.80;;;;;;4835321;29;20137;-81
2021/03/29 10:16:29;;;;;;;8.30;3.95;;;22.30;44.70;;;;;;4821215;29;20497;-80
2021/03/29 10:19:06;;;;;;;10.35;4.95;;;21.90;45.60;;;;;;4834567;29;20058;-80
2021/03/29 10:21:54;;;;;;;10.07;4.70;;;21.80;45.50;;;;;;4835592;29;20022;-78
2021/03/29 10:24:20;;;;;;;8.60;3.53;;;21.00;47.20;;;;;;4829341;29;20062;-82
2021/03/29 10:26:57;;;;;;;5.88;2.67;;;21.60;46.90;;;;;;4841783;29;20045;-80
2021/03/29 10:29:40;;;;;;;7.07;3.15;;;22.30;45.40;;;;;;4836457;29;20113;-77
2021/03/29 10:32:13;;;;;;;8.27;3.13;;;22.70;44.50;;;;;;4840146;29;20041;-85
2021/03/29 10:34:41;;;;;;;7.55;3.13;;;22.30;45.00;;;;;;4830771;29;20029;-80
2021/03/29 10:37:21;;;;;;;9.80;4.28;;;21.20;46.30;;;;;;4833392;29;20088;-82
2021/03/29 10:39:48;;;;;;;7.55;4.15;;;20.50;47.30;;;;;;4833960;29;20733;-82
2021/03/29 10:42:15;;;;;;;9.45;4.55;;;19.70;48.70;;;;;;4832479;29;20121;-85
2021/03/29 10:44:42;;;;;;;7.75;3.05;;;;;;;;;;4836567;29;20045;-82
2021/03/29 10:47:08;;;;;;;8.18;2.88;;;;;;;;;;4846250;29;20059;-85
2021/03/29 10:49:34;;;;;;;7.47;2.72;;;;;;;;;;4836064;29;20106;-85
2021/03/29 10:52:00;;;;;;;8.45;3.33;;;18.40;52.00;;;;;;4815926;29;20029;-87
2021/03/29 10:54:26;;;;;;;7.30;2.70;;;19.10;53.60;;;;;;4843156;29;20029;-88
2021/03/29 10:56:52;;;;;;;7.82;3.42;;;18.00;53.50;;;;;;4831178;29;20034;-87
2021/03/29 10:59:18;;;;;;;6.10;3.00;;;;;;;;;;4839433;29;20053;-90
2021/03/29 11:01:44;;;;;;;6.80;2.50;;;;;;;;;;4828925;29;20074;-86
2021/03/29 11:04:10;;;;;;;8.88;3.17;;;;;;;;;;4835849;29;20046;-86
2021/03/29 11:06:36;;;;;;;5.88;2.58;;;;;;;;;;4842473;29;20040;-89
2021/03/29 11:09:02;;;;;;;8.45;3.00;;;16.70;61.30;;;;;;4841640;29;20032;-88
2021/03/29 11:11:28;;;;;;;5.28;3.20;;;;;;;;;;4842855;29;20476;-90
2021/03/29 11:13:54;;;;;;;6.40;2.90;;;;;;;;;;4828675;29;20035;-89
2021/03/29 11:16:22;;;;;;;10.93;3.55;;;;;;;;;;4830193;29;20022;-87
2021/03/29 11:18:47;;;;;;;8.13;2.65;;;16.70;61.70;;;;;;4848097;29;20067;-89
2021/03/29 11:21:14;;;;;;;6.40;2.92;;;;;;;;;;4853773;29;20072;-88
2021/03/29 11:23:40;;;;;;;7.32;3.25;;;;;;;;;;4845129;29;20026;-89
2021/03/29 11:26:06;;;;;;;6.43;2.85;;;;;;;;;;4848197;29;20038;-89
2021/03/29 11:28:32;;;;;;;9.45;4.30;;;;;;;;;;4844490;29;20033;-86
2021/03/29 11:30:57;;;;;;;7.03;2.67;;;17.30;58.70;;;;;;4843476;29;20026;-83
2021/03/29 11:33:29;;;;;;;6.03;2.20;;;17.00;58.00;;;;;;4841233;29;20058;-87
2021/03/29 11:35:55;;;;;;;6.93;3.33;;;17.10;57.90;;;;;;4856256;29;20026;-89
2021/03/29 11:38:21;;;;;;;8.70;3.70;;;17.30;57.40;;;;;;4856888;29;20061;-88
2021/03/29 11:40:47;;;;;;;7.45;3.10;;;;;;;;;;4846967;29;20362;-85
2021/03/29 11:43:14;;;;;;;8.27;2.83;;;;;;;;;;4849383;29;20113;-86
2021/03/29 11:45:41;;;;;;;8.70;2.95;;;17.30;57.20;;;;;;4852274;29;20504;-88
2021/03/29 11:48:07;;;;;;;5.13;1.90;;;17.30;57.30;;;;;;4837792;29;20075;-88
2021/03/29 11:50:43;;;;;;;5.90;2.28;;;17.70;54.10;;;;;;4819259;29;20034;-89
2021/03/29 11:53:12;;;;;;;6.07;2.10;;;;;;;;;;4837792;29;20068;-87
2021/03/29 11:55:38;;;;;;;6.47;2.05;;;18.20;52.60;;;;;;4818614;29;20061;-85
2021/03/29 11:58:08;;;;;;;4.95;2.15;;;18.50;51.80;;;;;;4845878;29;20041;-85
2021/03/29 12:06:21;;;;;;;4.95;2.50;;;19.10;50.20;;;;;;4819570;29;20100;-87
2021/03/29 12:08:56;;;;;;;5.78;3.05;;;;;;;;;;4812298;29;20038;-87
2021/03/29 12:14:13;;;;;;;5.35;2.60;;;22.10;44.60;;;;;;4849696;29;20139;-83
2021/03/29 12:16:45;;;;;;;15.93;3.35;;;22.10;45.20;;;;;;4840745;29;20110;-84
2021/03/29 12:19:12;;;;;;;9.57;3.20;;;23.50;44.00;;;;;;4834148;29;20034;-83
2021/03/29 12:21:38;;;;;;;5.43;2.90;;;23.70;42.50;;;;;;4825894;29;20087;-84
2021/03/29 12:24:16;;;;;;;8.35;2.72;;;22.90;42.80;;;;;;4840024;29;20038;-85
2021/03/29 12:26:42;;;;;;;7.45;2.72;;;22.40;42.80;;;;;;4832788;29;20059;-86
2021/03/29 12:29:13;;;;;;;7.05;2.42;;;21.90;44.10;;;;;;4847265;29;20535;-85
2021/03/29 12:31:58;;;;;;;7.95;3.95;;;21.10;45.50;;;;;;4829948;29;20046;-86
2021/03/29 12:34:31;;;;;;;5.53;2.40;;;21.30;45.50;;;;;;4848204;29;20094;-88
2021/03/29 12:37:02;;;;;;;8.80;2.72;;;21.40;44.70;;;;;;4836374;29;20041;-88
2021/03/29 12:39:38;;;;;;;5.55;2.53;;;;;;;;;;4844676;29;20040;-85
2021/03/29 12:42:31;;;;;;;16.10;10.73;;;22.40;45.30;;;;;;4846447;29;20042;-80
2021/03/29 12:44:57;;;;;;;6.35;3.00;;;22.40;44.70;;;;;;4847389;29;20038;-86
2021/03/29 12:47:31;;;;;;;6.20;3.47;;;21.60;45.10;;;;;;4853471;29;20033;-83
2021/03/29 12:50:15;;;;;;;4.78;2.75;;;21.40;45.90;;;;;;4841150;29;20658;-82
2021/03/29 12:52:47;;;;;;;6.68;3.20;;;21.50;45.50;;;;;;4853619;29;20089;-83
2021/03/29 12:55:16;;;;;;;9.05;3.10;;;22.20;45.50;;;;;;4835237;29;20161;-83
2021/03/29 12:57:48;;;;;;;4.95;2.67;;;23.40;44.20;;;;;;4843488;29;20062;-81
2021/03/29 13:00:20;;;;;;;6.43;2.88;;;24.90;40.70;;;;;;4844767;29;20034;-77
2021/03/29 13:02:46;;;;;;;5.72;2.63;;;24.40;41.50;;;;;;4840530;29;20034;-82
2021/03/29 13:05:24;;;;;;;8.90;3.40;;;24.10;42.50;;;;;;4848443;29;20034;-84
2021/03/29 13:08:03;;;;;;;7.53;3.28;;;24.00;41.80;;;;;;4831984;29;20061;-81
2021/03/29 13:11:30;;;;;;;9.50;3.38;;;23.80;42.10;;;;;;4840597;29;20398;-80
2021/03/29 13:14:00;;;;;;;10.52;3.67;;;25.00;41.20;;;;;;4823848;29;20057;-79
2021/03/29 13:16:33;;;;;;;5.50;3.15;;;;;;;;;;4843624;29;20026;-82
2021/03/29 13:19:02;;;;;;;6.18;2.70;;;;;;;;;;4848862;29;20534;-82
2021/03/29 13:21:33;;;;;;;5.72;3.00;;;24.70;41.00;;;;;;4840388;29;20097;-80